sensor_id;sensor_type;location;lat;lon;timestamp;P1;durP1;ratioP1;P2;durP2;ratioP2
70997;SDS011;58663;52.040;4.634;2023-10-08T00:01:16;14.98;;;5.53;;
70997;SDS011;58663;52.040;4.634;2023-10-08T00:03:42;15.05;;;5.93;;
70997;SDS011;58663;52.040;4.634;2023-10-08T00:06:14;14.55;;;5.60;;
70997;SDS011;58663;52.040;4.634;2023-10-08T00:08:40;18.00;;;5.43;;
70997;SDS011;58663;52.040;4.634;2023-10-08T00:11:05;17.85;;;7.00;;
70997;SDS011;58663;52.040;4.634;2023-10-08T00:13:32;18.70;;;6.15;;
70997;SDS011;58663;52.040;4.634;2023-10-08T00:16:14;20.20;;;5.88;;
70997;SDS011;58663;52.040;4.634;2023-10-08T00:18:42;15.63;;;5.60;;
70997;SDS011;58663;52.040;4.634;2023-10-08T00:21:14;22.10;;;5.97;;
70997;SDS011;58663;52.040;4.634;2023-10-08T00:23:44;19.13;;;6.50;;
70997;SDS011;58663;52.040;4.634;2023-10-08T00:26:25;16.42;;;5.15;;
70997;SDS011;58663;52.040;4.634;2023-10-08T00:28:58;15.93;;;5.43;;
70997;SDS011;58663;52.040;4.634;2023-10-08T00:31:47;18.35;;;6.05;;
70997;SDS011;58663;52.040;4.634;2023-10-08T00:34:15;22.00;;;5.80;;
70997;SDS011;58663;52.040;4.634;2023-10-08T00:36:42;24.27;;;6.32;;
70997;SDS011;58663;52.040;4.634;2023-10-08T00:39:09;16.33;;;7.07;;
70997;SDS011;58663;52.040;4.634;2023-10-08T00:41:48;12.68;;;5.38;;
70997;SDS011;58663;52.040;4.634;2023-10-08T00:44:15;18.75;;;5.63;;
70997;SDS011;58663;52.040;4.634;2023-10-08T00:46:41;17.65;;;6.72;;
70997;SDS011;58663;52.040;4.634;2023-10-08T00:49:12;13.50;;;6.00;;
70997;SDS011;58663;52.040;4.634;2023-10-08T00:51:44;19.80;;;6.13;;
70997;SDS011;58663;52.040;4.634;2023-10-08T00:54:26;18.27;;;7.45;;
70997;SDS011;58663;52.040;4.634;2023-10-08T00:56:58;13.70;;;5.82;;
70997;SDS011;58663;52.040;4.634;2023-10-08T00:59:26;17.00;;;6.40;;
70997;SDS011;58663;52.040;4.634;2023-10-08T01:01:58;16.85;;;5.25;;
70997;SDS011;58663;52.040;4.634;2023-10-08T01:04:31;18.15;;;5.90;;
70997;SDS011;58663;52.040;4.634;2023-10-08T01:07:01;25.15;;;6.93;;
70997;SDS011;58663;52.040;4.634;2023-10-08T01:09:41;19.40;;;6.43;;
70997;SDS011;58663;52.040;4.634;2023-10-08T01:12:19;15.82;;;5.82;;
70997;SDS011;58663;52.040;4.634;2023-10-08T01:14:52;21.00;;;6.88;;
70997;SDS011;58663;52.040;4.634;2023-10-08T01:17:19;19.23;;;6.20;;
70997;SDS011;58663;52.040;4.634;2023-10-08T01:22:44;19.98;;;6.18;;
70997;SDS011;58663;52.040;4.634;2023-10-08T01:25:09;22.42;;;7.43;;
70997;SDS011;58663;52.040;4.634;2023-10-08T01:27:35;13.48;;;6.38;;
70997;SDS011;58663;52.040;4.634;2023-10-08T01:30:02;18.30;;;6.40;;
70997;SDS011;58663;52.040;4.634;2023-10-08T01:32:43;18.45;;;5.93;;
70997;SDS011;58663;52.040;4.634;2023-10-08T01:35:08;18.50;;;6.05;;
70997;SDS011;58663;52.040;4.634;2023-10-08T01:37:47;11.38;;;5.63;;
70997;SDS011;58663;52.040;4.634;2023-10-08T01:40:15;18.58;;;6.68;;
70997;SDS011;58663;52.040;4.634;2023-10-08T01:42:41;18.70;;;6.85;;
70997;SDS011;58663;52.040;4.634;2023-10-08T01:45:07;16.52;;;6.80;;
70997;SDS011;58663;52.040;4.634;2023-10-08T01:47:35;15.75;;;6.47;;
70997;SDS011;58663;52.040;4.634;2023-10-08T01:50:01;19.10;;;6.22;;
70997;SDS011;58663;52.040;4.634;2023-10-08T01:52:31;13.65;;;6.50;;
70997;SDS011;58663;52.040;4.634;2023-10-08T01:54:56;20.77;;;6.45;;
70997;SDS011;58663;52.040;4.634;2023-10-08T01:57:22;21.20;;;7.35;;
70997;SDS011;58663;52.040;4.634;2023-10-08T01:59:48;20.40;;;6.75;;
70997;SDS011;58663;52.040;4.634;2023-10-08T02:02:13;19.40;;;7.40;;
70997;SDS011;58663;52.040;4.634;2023-10-08T02:04:40;18.27;;;6.93;;
70997;SDS011;58663;52.040;4.634;2023-10-08T02:07:06;22.40;;;6.82;;
70997;SDS011;58663;52.040;4.634;2023-10-08T02:09:37;18.70;;;6.38;;
70997;SDS011;58663;52.040;4.634;2023-10-08T02:12:06;18.80;;;7.97;;
70997;SDS011;58663;52.040;4.634;2023-10-08T02:14:31;17.10;;;7.45;;
70997;SDS011;58663;52.040;4.634;2023-10-08T02:17:00;18.40;;;6.93;;
70997;SDS011;58663;52.040;4.634;2023-10-08T02:19:31;16.92;;;7.03;;
70997;SDS011;58663;52.040;4.634;2023-10-08T02:21:57;19.85;;;7.03;;
70997;SDS011;58663;52.040;4.634;2023-10-08T02:24:23;15.60;;;6.45;;
70997;SDS011;58663;52.040;4.634;2023-10-08T02:26:49;16.98;;;7.68;;
70997;SDS011;58663;52.040;4.634;2023-10-08T02:29:23;17.35;;;6.85;;
70997;SDS011;58663;52.040;4.634;2023-10-08T02:31:50;22.73;;;7.35;;
70997;SDS011;58663;52.040;4.634;2023-10-08T02:34:15;23.10;;;7.57;;
70997;SDS011;58663;52.040;4.634;2023-10-08T02:36:41;20.98;;;6.60;;
70997;SDS011;58663;52.040;4.634;2023-10-08T02:39:07;23.60;;;8.25;;
70997;SDS011;58663;52.040;4.634;2023-10-08T02:41:41;19.40;;;7.03;;
70997;SDS011;58663;52.040;4.634;2023-10-08T02:44:08;18.15;;;7.57;;
70997;SDS011;58663;52.040;4.634;2023-10-08T02:46:38;13.60;;;7.07;;
70997;SDS011;58663;52.040;4.634;2023-10-08T02:49:05;18.00;;;8.02;;
70997;SDS011;58663;52.040;4.634;2023-10-08T02:51:35;21.42;;;7.43;;
70997;SDS011;58663;52.040;4.634;2023-10-08T02:54:00;24.15;;;7.95;;
70997;SDS011;58663;52.040;4.634;2023-10-08T02:56:30;17.63;;;8.20;;
70997;SDS011;58663;52.040;4.634;2023-10-08T02:58:57;18.35;;;7.50;;
70997;SDS011;58663;52.040;4.634;2023-10-08T03:01:22;17.67;;;6.97;;
70997;SDS011;58663;52.040;4.634;2023-10-08T03:03:48;19.80;;;7.50;;
70997;SDS011;58663;52.040;4.634;2023-10-08T03:06:13;21.90;;;7.80;;
70997;SDS011;58663;52.040;4.634;2023-10-08T03:08:40;16.67;;;7.32;;
70997;SDS011;58663;52.040;4.634;2023-10-08T03:11:09;20.08;;;7.15;;
70997;SDS011;58663;52.040;4.634;2023-10-08T03:13:43;17.23;;;6.80;;
70997;SDS011;58663;52.040;4.634;2023-10-08T03:16:11;19.33;;;8.10;;
70997;SDS011;58663;52.040;4.634;2023-10-08T03:18:38;18.65;;;8.10;;
70997;SDS011;58663;52.040;4.634;2023-10-08T03:21:09;22.25;;;7.28;;
70997;SDS011;58663;52.040;4.634;2023-10-08T03:24:07;19.20;;;7.50;;
70997;SDS011;58663;52.040;4.634;2023-10-08T03:26:54;16.55;;;7.82;;
70997;SDS011;58663;52.040;4.634;2023-10-08T03:29:30;22.30;;;7.82;;
70997;SDS011;58663;52.040;4.634;2023-10-08T03:31:56;27.80;;;8.25;;
70997;SDS011;58663;52.040;4.634;2023-10-08T03:34:22;17.45;;;7.35;;
70997;SDS011;58663;52.040;4.634;2023-10-08T03:36:52;22.25;;;8.27;;
70997;SDS011;58663;52.040;4.634;2023-10-08T03:39:24;30.63;;;7.80;;
70997;SDS011;58663;52.040;4.634;2023-10-08T03:42:06;25.60;;;7.97;;
70997;SDS011;58663;52.040;4.634;2023-10-08T03:44:34;17.95;;;8.27;;
70997;SDS011;58663;52.040;4.634;2023-10-08T03:47:02;20.00;;;7.95;;
70997;SDS011;58663;52.040;4.634;2023-10-08T03:49:35;22.40;;;7.82;;
70997;SDS011;58663;52.040;4.634;2023-10-08T03:52:03;21.60;;;8.95;;
70997;SDS011;58663;52.040;4.634;2023-10-08T03:54:31;22.65;;;8.18;;
70997;SDS011;58663;52.040;4.634;2023-10-08T03:57:00;18.50;;;7.45;;
70997;SDS011;58663;52.040;4.634;2023-10-08T03:59:29;16.85;;;7.70;;
70997;SDS011;58663;52.040;4.634;2023-10-08T04:01:56;29.98;;;8.95;;
70997;SDS011;58663;52.040;4.634;2023-10-08T04:04:32;30.10;;;8.85;;
70997;SDS011;58663;52.040;4.634;2023-10-08T04:07:14;21.88;;;8.55;;
70997;SDS011;58663;52.040;4.634;2023-10-08T04:09:53;25.87;;;8.97;;
70997;SDS011;58663;52.040;4.634;2023-10-08T04:12:34;23.42;;;8.77;;
70997;SDS011;58663;52.040;4.634;2023-10-08T04:15:01;35.72;;;9.65;;
70997;SDS011;58663;52.040;4.634;2023-10-08T04:17:32;24.83;;;9.13;;
70997;SDS011;58663;52.040;4.634;2023-10-08T04:20:08;25.70;;;8.43;;
70997;SDS011;58663;52.040;4.634;2023-10-08T04:22:55;20.27;;;7.93;;
70997;SDS011;58663;52.040;4.634;2023-10-08T04:25:21;28.60;;;9.73;;
70997;SDS011;58663;52.040;4.634;2023-10-08T04:27:46;23.55;;;8.88;;
70997;SDS011;58663;52.040;4.634;2023-10-08T04:30:15;23.35;;;8.98;;
70997;SDS011;58663;52.040;4.634;2023-10-08T04:32:41;20.33;;;9.05;;
70997;SDS011;58663;52.040;4.634;2023-10-08T04:35:06;24.95;;;9.63;;
70997;SDS011;58663;52.040;4.634;2023-10-08T04:37:35;20.65;;;8.25;;
70997;SDS011;58663;52.040;4.634;2023-10-08T04:40:00;21.38;;;9.43;;
70997;SDS011;58663;52.040;4.634;2023-10-08T04:42:26;29.08;;;9.70;;
70997;SDS011;58663;52.040;4.634;2023-10-08T04:44:52;31.75;;;9.40;;
70997;SDS011;58663;52.040;4.634;2023-10-08T04:47:17;24.02;;;9.30;;
70997;SDS011;58663;52.040;4.634;2023-10-08T04:49:59;27.13;;;9.65;;
70997;SDS011;58663;52.040;4.634;2023-10-08T04:52:24;26.77;;;11.45;;
70997;SDS011;58663;52.040;4.634;2023-10-08T04:54:50;28.83;;;10.45;;
70997;SDS011;58663;52.040;4.634;2023-10-08T04:57:22;24.45;;;10.05;;
70997;SDS011;58663;52.040;4.634;2023-10-08T04:59:48;22.75;;;9.43;;
70997;SDS011;58663;52.040;4.634;2023-10-08T05:02:15;22.08;;;9.93;;
70997;SDS011;58663;52.040;4.634;2023-10-08T05:07:36;32.92;;;10.48;;
70997;SDS011;58663;52.040;4.634;2023-10-08T05:10:25;29.02;;;10.38;;
70997;SDS011;58663;52.040;4.634;2023-10-08T05:12:50;20.13;;;9.48;;
70997;SDS011;58663;52.040;4.634;2023-10-08T05:15:28;27.60;;;9.70;;
70997;SDS011;58663;52.040;4.634;2023-10-08T05:18:22;26.33;;;9.45;;
70997;SDS011;58663;52.040;4.634;2023-10-08T05:20:48;25.52;;;7.53;;
70997;SDS011;58663;52.040;4.634;2023-10-08T05:23:13;21.98;;;7.82;;
70997;SDS011;58663;52.040;4.634;2023-10-08T05:25:45;18.58;;;6.80;;
70997;SDS011;58663;52.040;4.634;2023-10-08T05:28:33;21.10;;;6.28;;
70997;SDS011;58663;52.040;4.634;2023-10-08T05:31:26;22.67;;;5.97;;
70997;SDS011;58663;52.040;4.634;2023-10-08T05:34:12;18.90;;;5.70;;
70997;SDS011;58663;52.040;4.634;2023-10-08T05:37:00;14.57;;;4.63;;
70997;SDS011;58663;52.040;4.634;2023-10-08T05:39:29;14.95;;;5.15;;
70997;SDS011;58663;52.040;4.634;2023-10-08T05:42:19;19.60;;;5.35;;
70997;SDS011;58663;52.040;4.634;2023-10-08T05:44:53;12.60;;;5.43;;
70997;SDS011;58663;52.040;4.634;2023-10-08T05:47:51;21.60;;;4.55;;
70997;SDS011;58663;52.040;4.634;2023-10-08T05:50:34;12.93;;;4.85;;
70997;SDS011;58663;52.040;4.634;2023-10-08T05:53:20;18.98;;;4.93;;
70997;SDS011;58663;52.040;4.634;2023-10-08T05:55:55;19.98;;;4.63;;
70997;SDS011;58663;52.040;4.634;2023-10-08T05:58:40;15.18;;;4.15;;
70997;SDS011;58663;52.040;4.634;2023-10-08T06:01:11;17.25;;;4.38;;
70997;SDS011;58663;52.040;4.634;2023-10-08T06:03:51;14.57;;;4.13;;
70997;SDS011;58663;52.040;4.634;2023-10-08T06:06:36;14.77;;;4.10;;
70997;SDS011;58663;52.040;4.634;2023-10-08T06:09:02;15.88;;;4.20;;
70997;SDS011;58663;52.040;4.634;2023-10-08T06:11:46;22.30;;;4.60;;
70997;SDS011;58663;52.040;4.634;2023-10-08T06:14:30;18.10;;;5.35;;
70997;SDS011;58663;52.040;4.634;2023-10-08T06:17:14;14.98;;;4.88;;
70997;SDS011;58663;52.040;4.634;2023-10-08T06:19:59;22.20;;;5.60;;
70997;SDS011;58663;52.040;4.634;2023-10-08T06:22:41;20.50;;;5.93;;
70997;SDS011;58663;52.040;4.634;2023-10-08T06:25:07;18.08;;;6.28;;
70997;SDS011;58663;52.040;4.634;2023-10-08T06:27:42;20.38;;;6.43;;
70997;SDS011;58663;52.040;4.634;2023-10-08T06:30:10;24.73;;;7.82;;
70997;SDS011;58663;52.040;4.634;2023-10-08T06:32:41;32.67;;;6.93;;
70997;SDS011;58663;52.040;4.634;2023-10-08T06:35:10;30.40;;;7.60;;
70997;SDS011;58663;52.040;4.634;2023-10-08T06:37:43;20.85;;;7.63;;
70997;SDS011;58663;52.040;4.634;2023-10-08T06:40:10;26.10;;;6.88;;
70997;SDS011;58663;52.040;4.634;2023-10-08T06:42:58;25.08;;;7.60;;
70997;SDS011;58663;52.040;4.634;2023-10-08T06:45:28;28.80;;;8.40;;
70997;SDS011;58663;52.040;4.634;2023-10-08T06:47:56;23.52;;;7.57;;
70997;SDS011;58663;52.040;4.634;2023-10-08T06:50:22;33.22;;;7.45;;
70997;SDS011;58663;52.040;4.634;2023-10-08T06:52:47;26.08;;;7.97;;
70997;SDS011;58663;52.040;4.634;2023-10-08T06:55:14;23.13;;;7.20;;
70997;SDS011;58663;52.040;4.634;2023-10-08T06:57:42;23.20;;;6.53;;
70997;SDS011;58663;52.040;4.634;2023-10-08T07:00:08;22.02;;;6.57;;
70997;SDS011;58663;52.040;4.634;2023-10-08T07:02:37;25.67;;;7.15;;
70997;SDS011;58663;52.040;4.634;2023-10-08T07:05:04;25.83;;;5.72;;
70997;SDS011;58663;52.040;4.634;2023-10-08T07:07:34;20.93;;;5.73;;
70997;SDS011;58663;52.040;4.634;2023-10-08T07:10:04;22.85;;;6.25;;
70997;SDS011;58663;52.040;4.634;2023-10-08T07:12:35;21.13;;;5.38;;
70997;SDS011;58663;52.040;4.634;2023-10-08T07:15:01;20.48;;;5.75;;
70997;SDS011;58663;52.040;4.634;2023-10-08T07:17:28;22.50;;;5.10;;
70997;SDS011;58663;52.040;4.634;2023-10-08T07:20:05;12.88;;;4.57;;
70997;SDS011;58663;52.040;4.634;2023-10-08T07:22:39;16.45;;;4.32;;
70997;SDS011;58663;52.040;4.634;2023-10-08T07:25:08;17.13;;;4.78;;
70997;SDS011;58663;52.040;4.634;2023-10-08T07:27:34;19.40;;;4.30;;
70997;SDS011;58663;52.040;4.634;2023-10-08T07:30:03;11.98;;;4.78;;
70997;SDS011;58663;52.040;4.634;2023-10-08T07:32:41;16.80;;;4.75;;
70997;SDS011;58663;52.040;4.634;2023-10-08T07:35:06;17.88;;;4.53;;
70997;SDS011;58663;52.040;4.634;2023-10-08T07:37:51;15.23;;;3.60;;
70997;SDS011;58663;52.040;4.634;2023-10-08T07:40:18;16.38;;;4.70;;
70997;SDS011;58663;52.040;4.634;2023-10-08T07:42:45;16.85;;;5.38;;
70997;SDS011;58663;52.040;4.634;2023-10-08T07:45:16;9.73;;;4.40;;
70997;SDS011;58663;52.040;4.634;2023-10-08T07:47:42;12.55;;;4.05;;
70997;SDS011;58663;52.040;4.634;2023-10-08T07:50:08;14.80;;;4.63;;
70997;SDS011;58663;52.040;4.634;2023-10-08T07:52:37;15.45;;;4.53;;
70997;SDS011;58663;52.040;4.634;2023-10-08T07:55:03;17.05;;;4.78;;
70997;SDS011;58663;52.040;4.634;2023-10-08T07:57:29;18.60;;;5.47;;
70997;SDS011;58663;52.040;4.634;2023-10-08T07:59:56;17.90;;;4.72;;
70997;SDS011;58663;52.040;4.634;2023-10-08T08:02:41;19.02;;;5.03;;
70997;SDS011;58663;52.040;4.634;2023-10-08T08:05:07;12.55;;;4.13;;
70997;SDS011;58663;52.040;4.634;2023-10-08T08:07:32;17.10;;;5.05;;
70997;SDS011;58663;52.040;4.634;2023-10-08T08:09:58;13.63;;;4.53;;
70997;SDS011;58663;52.040;4.634;2023-10-08T08:12:24;16.85;;;4.50;;
70997;SDS011;58663;52.040;4.634;2023-10-08T08:14:51;16.80;;;4.80;;
70997;SDS011;58663;52.040;4.634;2023-10-08T08:17:22;11.70;;;4.32;;
70997;SDS011;58663;52.040;4.634;2023-10-08T08:19:50;14.35;;;4.43;;
70997;SDS011;58663;52.040;4.634;2023-10-08T08:22:17;19.15;;;4.63;;
70997;SDS011;58663;52.040;4.634;2023-10-08T08:24:47;17.85;;;4.93;;
70997;SDS011;58663;52.040;4.634;2023-10-08T08:27:13;12.15;;;4.70;;
70997;SDS011;58663;52.040;4.634;2023-10-08T08:29:51;19.20;;;5.22;;
70997;SDS011;58663;52.040;4.634;2023-10-08T08:32:20;15.43;;;4.32;;
70997;SDS011;58663;52.040;4.634;2023-10-08T08:34:47;15.85;;;4.75;;
70997;SDS011;58663;52.040;4.634;2023-10-08T08:37:15;12.63;;;5.47;;
70997;SDS011;58663;52.040;4.634;2023-10-08T08:39:43;16.35;;;4.20;;
70997;SDS011;58663;52.040;4.634;2023-10-08T08:42:10;14.88;;;3.83;;
70997;SDS011;58663;52.040;4.634;2023-10-08T08:44:37;15.88;;;5.00;;
70997;SDS011;58663;52.040;4.634;2023-10-08T08:47:10;16.02;;;4.28;;
70997;SDS011;58663;52.040;4.634;2023-10-08T08:49:39;18.02;;;4.03;;
70997;SDS011;58663;52.040;4.634;2023-10-08T08:52:07;15.45;;;4.10;;
70997;SDS011;58663;52.040;4.634;2023-10-08T08:54:32;18.30;;;5.05;;
70997;SDS011;58663;52.040;4.634;2023-10-08T08:56:59;9.75;;;4.07;;
70997;SDS011;58663;52.040;4.634;2023-10-08T08:59:29;16.13;;;3.53;;
70997;SDS011;58663;52.040;4.634;2023-10-08T09:01:56;12.93;;;3.50;;
70997;SDS011;58663;52.040;4.634;2023-10-08T09:04:31;7.90;;;3.30;;
70997;SDS011;58663;52.040;4.634;2023-10-08T09:07:00;12.07;;;3.03;;
70997;SDS011;58663;52.040;4.634;2023-10-08T09:09:32;17.90;;;3.33;;
70997;SDS011;58663;52.040;4.634;2023-10-08T09:11:59;14.27;;;3.42;;
70997;SDS011;58663;52.040;4.634;2023-10-08T09:14:25;11.55;;;3.33;;
70997;SDS011;58663;52.040;4.634;2023-10-08T09:16:53;9.18;;;2.80;;
70997;SDS011;58663;52.040;4.634;2023-10-08T09:19:19;12.18;;;3.15;;
70997;SDS011;58663;52.040;4.634;2023-10-08T09:24:32;10.57;;;3.35;;
70997;SDS011;58663;52.040;4.634;2023-10-08T09:26:59;7.53;;;2.72;;
70997;SDS011;58663;52.040;4.634;2023-10-08T09:29:25;12.65;;;3.05;;
70997;SDS011;58663;52.040;4.634;2023-10-08T09:31:58;10.20;;;3.13;;
70997;SDS011;58663;52.040;4.634;2023-10-08T09:34:28;7.85;;;3.05;;
70997;SDS011;58663;52.040;4.634;2023-10-08T09:36:55;7.55;;;2.83;;
70997;SDS011;58663;52.040;4.634;2023-10-08T09:39:21;8.77;;;3.30;;
70997;SDS011;58663;52.040;4.634;2023-10-08T09:44:18;9.75;;;3.00;;
70997;SDS011;58663;52.040;4.634;2023-10-08T09:46:44;8.07;;;3.50;;
70997;SDS011;58663;52.040;4.634;2023-10-08T09:49:14;12.23;;;3.13;;
70997;SDS011;58663;52.040;4.634;2023-10-08T09:51:41;9.38;;;3.15;;
70997;SDS011;58663;52.040;4.634;2023-10-08T09:54:11;9.13;;;3.15;;
70997;SDS011;58663;52.040;4.634;2023-10-08T09:56:39;11.43;;;3.50;;
70997;SDS011;58663;52.040;4.634;2023-10-08T09:59:05;13.57;;;3.30;;
70997;SDS011;58663;52.040;4.634;2023-10-08T10:01:34;12.52;;;3.88;;
70997;SDS011;58663;52.040;4.634;2023-10-08T10:04:08;13.57;;;3.50;;
70997;SDS011;58663;52.040;4.634;2023-10-08T10:06:34;10.75;;;3.58;;
70997;SDS011;58663;52.040;4.634;2023-10-08T10:09:01;11.45;;;3.13;;
70997;SDS011;58663;52.040;4.634;2023-10-08T10:11:28;10.93;;;3.80;;
70997;SDS011;58663;52.040;4.634;2023-10-08T10:13:57;11.77;;;4.32;;
70997;SDS011;58663;52.040;4.634;2023-10-08T10:16:26;8.75;;;3.88;;
70997;SDS011;58663;52.040;4.634;2023-10-08T10:18:56;11.65;;;3.83;;
70997;SDS011;58663;52.040;4.634;2023-10-08T10:21:31;17.80;;;3.30;;
70997;SDS011;58663;52.040;4.634;2023-10-08T10:23:58;8.43;;;3.60;;
70997;SDS011;58663;52.040;4.634;2023-10-08T10:34:12;10.45;;;4.40;;
70997;SDS011;58663;52.040;4.634;2023-10-08T10:36:38;12.90;;;4.20;;
70997;SDS011;58663;52.040;4.634;2023-10-08T10:39:05;10.82;;;4.60;;
70997;SDS011;58663;52.040;4.634;2023-10-08T10:41:50;13.48;;;4.55;;
70997;SDS011;58663;52.040;4.634;2023-10-08T10:44:16;9.27;;;3.97;;
70997;SDS011;58663;52.040;4.634;2023-10-08T10:46:42;12.80;;;4.78;;
70997;SDS011;58663;52.040;4.634;2023-10-08T10:49:08;12.20;;;4.53;;
70997;SDS011;58663;52.040;4.634;2023-10-08T10:51:49;13.68;;;4.68;;
70997;SDS011;58663;52.040;4.634;2023-10-08T10:54:22;13.45;;;4.72;;
70997;SDS011;58663;52.040;4.634;2023-10-08T10:56:51;11.25;;;4.57;;
70997;SDS011;58663;52.040;4.634;2023-10-08T10:59:42;10.82;;;3.85;;
70997;SDS011;58663;52.040;4.634;2023-10-08T11:02:18;13.60;;;4.15;;
70997;SDS011;58663;52.040;4.634;2023-10-08T11:05:04;13.85;;;3.70;;
70997;SDS011;58663;52.040;4.634;2023-10-08T11:07:44;13.73;;;3.95;;
70997;SDS011;58663;52.040;4.634;2023-10-08T11:10:10;14.43;;;4.50;;
70997;SDS011;58663;52.040;4.634;2023-10-08T11:12:40;14.77;;;3.85;;
70997;SDS011;58663;52.040;4.634;2023-10-08T11:15:12;10.85;;;4.25;;
70997;SDS011;58663;52.040;4.634;2023-10-08T11:17:42;9.77;;;4.75;;
70997;SDS011;58663;52.040;4.634;2023-10-08T11:20:25;10.73;;;4.22;;
70997;SDS011;58663;52.040;4.634;2023-10-08T11:22:51;11.05;;;4.55;;
70997;SDS011;58663;52.040;4.634;2023-10-08T11:25:22;12.80;;;5.40;;
70997;SDS011;58663;52.040;4.634;2023-10-08T11:27:52;14.88;;;4.35;;
70997;SDS011;58663;52.040;4.634;2023-10-08T11:30:26;10.10;;;4.10;;
70997;SDS011;58663;52.040;4.634;2023-10-08T11:32:55;12.13;;;4.43;;
70997;SDS011;58663;52.040;4.634;2023-10-08T11:35:22;15.55;;;4.22;;
70997;SDS011;58663;52.040;4.634;2023-10-08T11:37:47;12.52;;;4.22;;
70997;SDS011;58663;52.040;4.634;2023-10-08T11:40:25;10.85;;;4.28;;
70997;SDS011;58663;52.040;4.634;2023-10-08T11:42:54;11.85;;;4.22;;
70997;SDS011;58663;52.040;4.634;2023-10-08T11:45:23;12.43;;;5.67;;
70997;SDS011;58663;52.040;4.634;2023-10-08T11:47:50;10.73;;;4.50;;
70997;SDS011;58663;52.040;4.634;2023-10-08T11:50:24;13.77;;;4.90;;
70997;SDS011;58663;52.040;4.634;2023-10-08T11:52:59;10.80;;;5.05;;
70997;SDS011;58663;52.040;4.634;2023-10-08T11:55:36;9.32;;;3.55;;
70997;SDS011;58663;52.040;4.634;2023-10-08T11:58:04;11.73;;;4.22;;
70997;SDS011;58663;52.040;4.634;2023-10-08T12:00:39;8.65;;;4.13;;
70997;SDS011;58663;52.040;4.634;2023-10-08T12:03:09;10.48;;;4.30;;
70997;SDS011;58663;52.040;4.634;2023-10-08T12:05:36;7.80;;;4.10;;
70997;SDS011;58663;52.040;4.634;2023-10-08T12:08:03;12.73;;;4.97;;
70997;SDS011;58663;52.040;4.634;2023-10-08T12:10:28;12.57;;;4.68;;
70997;SDS011;58663;52.040;4.634;2023-10-08T12:12:56;10.48;;;4.20;;
70997;SDS011;58663;52.040;4.634;2023-10-08T12:15:24;9.50;;;4.43;;
70997;SDS011;58663;52.040;4.634;2023-10-08T12:17:59;12.18;;;4.68;;
70997;SDS011;58663;52.040;4.634;2023-10-08T12:20:39;13.57;;;5.22;;
70997;SDS011;58663;52.040;4.634;2023-10-08T12:23:08;11.85;;;5.25;;
70997;SDS011;58663;52.040;4.634;2023-10-08T12:25:36;14.27;;;4.90;;
70997;SDS011;58663;52.040;4.634;2023-10-08T12:28:02;8.55;;;5.18;;
70997;SDS011;58663;52.040;4.634;2023-10-08T12:30:29;14.02;;;5.93;;
70997;SDS011;58663;52.040;4.634;2023-10-08T12:33:06;11.88;;;5.43;;
70997;SDS011;58663;52.040;4.634;2023-10-08T12:35:32;11.10;;;5.65;;
70997;SDS011;58663;52.040;4.634;2023-10-08T12:37:57;12.07;;;5.95;;
70997;SDS011;58663;52.040;4.634;2023-10-08T12:40:23;10.68;;;5.53;;
70997;SDS011;58663;52.040;4.634;2023-10-08T12:42:49;12.50;;;5.40;;
70997;SDS011;58663;52.040;4.634;2023-10-08T12:45:17;10.70;;;5.30;;
70997;SDS011;58663;52.040;4.634;2023-10-08T12:47:49;15.30;;;6.90;;
70997;SDS011;58663;52.040;4.634;2023-10-08T12:50:18;12.70;;;6.20;;
70997;SDS011;58663;52.040;4.634;2023-10-08T12:53:10;11.43;;;5.75;;
70997;SDS011;58663;52.040;4.634;2023-10-08T12:55:39;13.75;;;6.25;;
70997;SDS011;58663;52.040;4.634;2023-10-08T12:58:05;12.27;;;6.00;;
70997;SDS011;58663;52.040;4.634;2023-10-08T13:00:35;15.13;;;7.07;;
70997;SDS011;58663;52.040;4.634;2023-10-08T13:03:03;10.02;;;5.45;;
70997;SDS011;58663;52.040;4.634;2023-10-08T13:05:30;14.95;;;6.38;;
70997;SDS011;58663;52.040;4.634;2023-10-08T13:07:58;12.32;;;6.30;;
70997;SDS011;58663;52.040;4.634;2023-10-08T13:10:28;15.38;;;6.95;;
70997;SDS011;58663;52.040;4.634;2023-10-08T13:12:56;19.83;;;7.20;;
70997;SDS011;58663;52.040;4.634;2023-10-08T13:15:21;12.30;;;6.18;;
70997;SDS011;58663;52.040;4.634;2023-10-08T13:17:50;14.52;;;7.15;;
70997;SDS011;58663;52.040;4.634;2023-10-08T13:20:17;14.48;;;7.97;;
70997;SDS011;58663;52.040;4.634;2023-10-08T13:22:42;17.23;;;7.95;;
70997;SDS011;58663;52.040;4.634;2023-10-08T13:25:08;17.20;;;7.85;;
70997;SDS011;58663;52.040;4.634;2023-10-08T13:27:34;17.20;;;9.10;;
70997;SDS011;58663;52.040;4.634;2023-10-08T13:30:04;19.58;;;9.18;;
70997;SDS011;58663;52.040;4.634;2023-10-08T13:32:36;20.92;;;9.02;;
70997;SDS011;58663;52.040;4.634;2023-10-08T13:35:04;17.95;;;8.10;;
70997;SDS011;58663;52.040;4.634;2023-10-08T13:37:33;14.80;;;8.40;;
70997;SDS011;58663;52.040;4.634;2023-10-08T13:40:02;14.35;;;8.05;;
70997;SDS011;58663;52.040;4.634;2023-10-08T13:42:28;22.40;;;7.95;;
70997;SDS011;58663;52.040;4.634;2023-10-08T13:44:54;19.27;;;7.97;;
70997;SDS011;58663;52.040;4.634;2023-10-08T13:47:22;18.95;;;8.93;;
70997;SDS011;58663;52.040;4.634;2023-10-08T13:49:50;20.10;;;8.90;;
70997;SDS011;58663;52.040;4.634;2023-10-08T13:52:17;17.33;;;8.35;;
70997;SDS011;58663;52.040;4.634;2023-10-08T13:54:45;16.20;;;8.80;;
70997;SDS011;58663;52.040;4.634;2023-10-08T13:57:16;19.50;;;9.50;;
70997;SDS011;58663;52.040;4.634;2023-10-08T13:59:44;22.60;;;10.10;;
70997;SDS011;58663;52.040;4.634;2023-10-08T14:02:11;21.95;;;9.27;;
70997;SDS011;58663;52.040;4.634;2023-10-08T14:04:42;16.33;;;8.73;;
70997;SDS011;58663;52.040;4.634;2023-10-08T14:07:09;21.95;;;9.25;;
70997;SDS011;58663;52.040;4.634;2023-10-08T14:09:37;22.50;;;9.38;;
70997;SDS011;58663;52.040;4.634;2023-10-08T14:12:03;19.33;;;8.80;;
70997;SDS011;58663;52.040;4.634;2023-10-08T14:14:31;21.90;;;9.45;;
70997;SDS011;58663;52.040;4.634;2023-10-08T14:16:59;23.55;;;9.02;;
70997;SDS011;58663;52.040;4.634;2023-10-08T14:19:28;20.67;;;9.43;;
70997;SDS011;58663;52.040;4.634;2023-10-08T14:22:01;22.23;;;8.95;;
70997;SDS011;58663;52.040;4.634;2023-10-08T14:24:29;18.58;;;8.35;;
70997;SDS011;58663;52.040;4.634;2023-10-08T14:26:58;21.55;;;8.18;;
70997;SDS011;58663;52.040;4.634;2023-10-08T14:29:28;20.00;;;7.88;;
70997;SDS011;58663;52.040;4.634;2023-10-08T14:31:54;18.08;;;8.43;;
70997;SDS011;58663;52.040;4.634;2023-10-08T14:34:21;13.55;;;6.78;;
70997;SDS011;58663;52.040;4.634;2023-10-08T14:37:06;20.85;;;7.95;;
70997;SDS011;58663;52.040;4.634;2023-10-08T14:39:50;18.65;;;7.90;;
70997;SDS011;58663;52.040;4.634;2023-10-08T14:42:34;17.42;;;7.53;;
70997;SDS011;58663;52.040;4.634;2023-10-08T14:45:18;17.92;;;7.97;;
70997;SDS011;58663;52.040;4.634;2023-10-08T14:47:44;16.30;;;7.55;;
70997;SDS011;58663;52.040;4.634;2023-10-08T14:50:10;18.10;;;7.75;;
70997;SDS011;58663;52.040;4.634;2023-10-08T14:52:41;18.85;;;7.53;;
70997;SDS011;58663;52.040;4.634;2023-10-08T14:55:08;17.60;;;7.50;;
70997;SDS011;58663;52.040;4.634;2023-10-08T14:57:33;19.95;;;7.25;;
70997;SDS011;58663;52.040;4.634;2023-10-08T14:59:58;18.90;;;7.85;;
70997;SDS011;58663;52.040;4.634;2023-10-08T15:02:24;23.42;;;8.77;;
70997;SDS011;58663;52.040;4.634;2023-10-08T15:04:54;15.70;;;7.45;;
70997;SDS011;58663;52.040;4.634;2023-10-08T15:07:20;13.50;;;6.13;;
70997;SDS011;58663;52.040;4.634;2023-10-08T15:09:46;15.30;;;6.18;;
70997;SDS011;58663;52.040;4.634;2023-10-08T15:12:13;12.18;;;6.03;;
70997;SDS011;58663;52.040;4.634;2023-10-08T15:14:41;12.60;;;5.60;;